createdAt,value
2023-01-30T00:01:30.251Z,32.55
2023-01-30T00:04:13.893Z,30.45
2023-01-30T00:06:58.490Z,34.95
2023-01-30T00:09:38.142Z,32.63
2023-01-30T00:12:20.669Z,37.33
2023-01-30T00:15:01.048Z,34.17
2023-01-30T00:17:47.344Z,31.25
2023-01-30T00:20:22.165Z,32.58
2023-01-30T00:23:05.784Z,32.60
2023-01-30T00:25:56.735Z,33.45
2023-01-30T00:28:39.603Z,25.75
2023-01-30T00:31:20.085Z,32.25
2023-01-30T00:34:03.006Z,35.60
2023-01-30T00:36:49.371Z,37.15
2023-01-30T00:39:31.146Z,35.75
2023-01-30T00:42:24.718Z,40.00
2023-01-30T00:45:18.194Z,39.25
2023-01-30T00:48:03.178Z,39.53
2023-01-30T00:50:46.847Z,41.05
2023-01-30T00:56:09.483Z,37.53
2023-01-30T00:58:47.482Z,36.70
2023-01-30T01:01:27.953Z,41.13
2023-01-30T01:04:04.994Z,41.17
2023-01-30T01:06:39.136Z,41.17
2023-01-30T01:09:31.732Z,37.70
2023-01-30T01:12:13.340Z,38.63
2023-01-30T01:14:48.885Z,40.58
2023-01-30T01:17:32.738Z,38.10
2023-01-30T01:20:13.808Z,40.78
2023-01-30T01:23:06.879Z,37.47
2023-01-30T01:25:47.562Z,38.10
2023-01-30T01:28:22.836Z,37.88
2023-01-30T01:30:58.929Z,37.67
2023-01-30T01:33:34.371Z,38.90
2023-01-30T01:36:29.430Z,36.60
2023-01-30T01:39:22.683Z,36.92
2023-01-30T01:42:07.314Z,37.08
2023-01-30T01:45:22.268Z,40.20
2023-01-30T01:48:15.621Z,38.70
2023-01-30T01:51:19.193Z,38.38
2023-01-30T01:54:05.639Z,36.08
2023-01-30T01:56:46.092Z,38.17
2023-01-30T01:59:56.071Z,38.55
2023-01-30T02:02:31.224Z,37.38
2023-01-30T02:05:11.524Z,36.95
2023-01-30T02:07:53.253Z,35.85
2023-01-30T02:10:58.661Z,39.28
2023-01-30T02:13:39.614Z,35.22
2023-01-30T02:16:16.025Z,37.17
2023-01-30T02:18:56.335Z,37.42
2023-01-30T02:21:58.988Z,40.38
2023-01-30T02:24:43.742Z,36.65
2023-01-30T02:27:51.382Z,37.80
2023-01-30T02:30:39.597Z,39.53
2023-01-30T02:33:39.610Z,39.50
2023-01-30T02:36:32.044Z,40.60
2023-01-30T02:39:26.902Z,41.60
2023-01-30T02:42:08.870Z,38.60
2023-01-30T02:44:53.584Z,39.88
2023-01-30T02:47:42.127Z,38.20
2023-01-30T02:50:35.025Z,41.08
2023-01-30T02:53:18.682Z,29.60
2023-01-30T02:55:59.230Z,34.50
2023-01-30T02:58:40.012Z,36.58
2023-01-30T03:01:31.966Z,36.72
2023-01-30T03:04:31.993Z,32.10
2023-01-30T03:07:57.264Z,35.75
2023-01-30T03:11:03.991Z,36.30
2023-01-30T03:14:06.650Z,32.58
2023-01-30T03:16:46.891Z,36.00
2023-01-30T03:19:31.079Z,37.53
2023-01-30T03:22:14.342Z,43.42
2023-01-30T03:24:57.041Z,42.33
2023-01-30T03:27:40.199Z,44.65
2023-01-30T03:30:24.591Z,40.63
2023-01-30T03:33:10.380Z,43.08
2023-01-30T03:35:59.514Z,42.60
2023-01-30T03:38:31.553Z,41.45
2023-01-30T03:41:13.186Z,33.70
2023-01-30T03:43:54.788Z,48.22
2023-01-30T03:46:32.729Z,51.10
2023-01-30T03:49:12.818Z,46.28
2023-01-30T03:51:56.092Z,43.30
2023-01-30T03:54:36.824Z,40.90
2023-01-30T03:57:33.621Z,40.80
2023-01-30T04:00:10.779Z,39.85
2023-01-30T04:02:52.096Z,43.03
2023-01-30T04:05:31.318Z,40.85
2023-01-30T04:08:28.082Z,43.35
2023-01-30T04:11:09.294Z,43.67
2023-01-30T04:14:06.828Z,45.95
2023-01-30T04:16:57.988Z,47.90
2023-01-30T04:19:52.798Z,49.78
2023-01-30T04:22:47.440Z,50.28
2023-01-30T04:25:30.157Z,50.17
2023-01-30T04:28:08.474Z,47.50
2023-01-30T04:30:49.501Z,48.90
2023-01-30T04:33:56.483Z,41.85
2023-01-30T04:36:36.962Z,41.60
2023-01-30T04:39:12.935Z,43.85
2023-01-30T04:41:45.963Z,47.92
2023-01-30T04:44:32.869Z,49.28
2023-01-30T04:47:30.881Z,45.78
2023-01-30T04:50:11.789Z,46.53
2023-01-30T04:52:55.379Z,52.33
2023-01-30T04:55:31.110Z,48.90
2023-01-30T04:58:15.172Z,51.55
2023-01-30T05:00:59.180Z,48.58
2023-01-30T05:03:40.923Z,50.90
2023-01-30T05:06:21.088Z,48.08
2023-01-30T05:09:09.397Z,48.47
2023-01-30T05:11:58.649Z,44.70
2023-01-30T05:14:36.522Z,56.38
2023-01-30T05:17:32.564Z,53.80
2023-01-30T05:20:09.647Z,54.88
2023-01-30T05:22:54.856Z,56.78
2023-01-30T05:25:33.290Z,53.53
2023-01-30T05:28:16.112Z,54.45
2023-01-30T05:30:52.393Z,51.28
2023-01-30T05:33:29.683Z,59.05
2023-01-30T05:36:19.172Z,51.10
2023-01-30T05:38:59.673Z,53.55
2023-01-30T05:41:39.176Z,54.20
2023-01-30T05:44:17.373Z,49.05
2023-01-30T05:46:50.244Z,46.67
2023-01-30T05:49:39.203Z,48.25
2023-01-30T05:52:17.741Z,47.13
2023-01-30T05:54:58.071Z,42.78
2023-01-30T06:00:13.186Z,45.50
2023-01-30T06:03:07.302Z,47.67
2023-01-30T06:05:53.589Z,47.97
2023-01-30T06:08:40.512Z,48.38
2023-01-30T06:11:20.073Z,47.13
2023-01-30T06:13:55.373Z,44.20
2023-01-30T06:16:32.166Z,47.42
2023-01-30T06:19:14.652Z,46.95
2023-01-30T06:21:51.487Z,49.30
2023-01-30T06:24:33.459Z,53.42
2023-01-30T06:27:20.097Z,55.60
2023-01-30T06:30:05.423Z,62.05
2023-01-30T06:32:45.113Z,55.53
2023-01-30T06:35:29.206Z,63.90
2023-01-30T06:38:09.605Z,67.90
2023-01-30T06:40:57.605Z,66.47
2023-01-30T06:43:35.942Z,70.15
2023-01-30T06:46:19.048Z,76.75
2023-01-30T06:48:59.516Z,71.28
2023-01-30T06:51:42.996Z,78.47
2023-01-30T06:54:23.396Z,90.03
2023-01-30T06:57:04.538Z,86.70
2023-01-30T06:59:42.963Z,82.75
2023-01-30T07:02:21.183Z,90.47
2023-01-30T07:05:10.326Z,88.68
2023-01-30T07:07:48.587Z,92.45
2023-01-30T07:10:32.455Z,100.55
2023-01-30T07:13:09.413Z,95.65
2023-01-30T07:15:56.622Z,91.65
2023-01-30T07:18:35.289Z,87.38
2023-01-30T07:21:17.965Z,80.53
2023-01-30T07:23:57.806Z,71.03
2023-01-30T07:26:46.791Z,69.63
2023-01-30T07:29:28.060Z,64.85
2023-01-30T07:32:06.238Z,61.83
2023-01-30T07:34:37.341Z,57.72
2023-01-30T07:37:19.070Z,59.95
2023-01-30T07:40:00.122Z,56.20
2023-01-30T07:42:39.192Z,56.15
2023-01-30T07:45:45.056Z,54.42
2023-01-30T07:48:22.640Z,52.88
2023-01-30T07:51:05.981Z,52.20
2023-01-30T07:53:41.949Z,46.13
2023-01-30T07:56:24.911Z,44.75
2023-01-30T07:59:05.754Z,41.13
2023-01-30T08:01:46.594Z,40.20
2023-01-30T08:04:32.934Z,39.17
2023-01-30T08:07:13.714Z,37.95
2023-01-30T08:09:51.532Z,37.60
2023-01-30T08:12:29.185Z,36.58
2023-01-30T08:15:10.830Z,37.85
2023-01-30T08:18:03.641Z,35.97
2023-01-30T08:20:37.137Z,38.70
2023-01-30T08:23:16.719Z,38.25
2023-01-30T08:25:59.979Z,37.70
2023-01-30T08:28:43.582Z,36.08
2023-01-30T08:31:22.241Z,37.53
2023-01-30T08:34:00.369Z,38.13
2023-01-30T08:36:35.281Z,37.55
2023-01-30T08:39:11.698Z,34.45
2023-01-30T08:41:52.125Z,32.50
2023-01-30T08:44:33.453Z,32.67
2023-01-30T08:47:08.168Z,31.70
2023-01-30T08:49:45.964Z,32.00
2023-01-30T08:52:34.356Z,31.08
2023-01-30T08:55:17.768Z,33.05
2023-01-30T08:58:01.519Z,35.58
2023-01-30T09:03:23.931Z,30.77
2023-01-30T09:06:07.858Z,31.75
2023-01-30T09:08:42.789Z,30.42
2023-01-30T09:11:21.408Z,30.38
2023-01-30T09:14:01.725Z,34.55
2023-01-30T09:16:39.676Z,31.73
2023-01-30T09:19:17.031Z,32.38
2023-01-30T09:22:03.101Z,31.60
2023-01-30T09:24:49.003Z,31.50
2023-01-30T09:27:25.050Z,30.38
2023-01-30T09:30:01.035Z,30.75
2023-01-30T09:32:37.606Z,29.95
2023-01-30T09:35:15.390Z,30.17
2023-01-30T09:37:56.277Z,30.17
2023-01-30T09:40:39.417Z,28.27
2023-01-30T09:43:58.715Z,27.98
2023-01-30T09:46:46.427Z,28.13
2023-01-30T09:50:06.310Z,30.15
2023-01-30T09:53:02.244Z,28.67
2023-01-30T09:55:47.302Z,29.15
2023-01-30T09:58:31.521Z,29.40
2023-01-30T10:01:10.424Z,30.67
2023-01-30T10:04:13.283Z,29.05
2023-01-30T10:07:04.749Z,29.83
2023-01-30T10:10:09.683Z,29.60
2023-01-30T10:12:58.951Z,29.13
2023-01-30T10:15:34.429Z,30.20
2023-01-30T10:18:19.339Z,29.38
2023-01-30T10:21:11.553Z,29.83
2023-01-30T10:24:00.645Z,29.00
2023-01-30T10:26:42.987Z,27.85
2023-01-30T10:29:27.960Z,26.75
2023-01-30T10:32:26.150Z,26.02
2023-01-30T10:35:08.450Z,27.63
2023-01-30T10:38:14.122Z,27.30
2023-01-30T10:41:01.291Z,27.60
2023-01-30T10:43:47.964Z,25.80
2023-01-30T10:46:42.343Z,25.23
2023-01-30T10:49:37.372Z,26.30
2023-01-30T10:52:34.496Z,24.50
2023-01-30T10:55:41.629Z,26.80
2023-01-30T10:58:59.325Z,27.17
2023-01-30T11:02:19.059Z,25.77
2023-01-30T11:05:31.399Z,26.25
2023-01-30T11:08:07.465Z,23.88
2023-01-30T11:10:42.621Z,23.85
2023-01-30T11:13:24.639Z,25.08
2023-01-30T11:16:09.416Z,24.60
2023-01-30T11:22:02.542Z,24.83
2023-01-30T11:24:59.969Z,25.88
2023-01-30T11:27:38.203Z,26.23
2023-01-30T11:30:18.411Z,26.95
2023-01-30T11:33:09.939Z,29.30
2023-01-30T11:36:06.124Z,27.77
2023-01-30T11:38:57.165Z,24.38
2023-01-30T11:41:33.919Z,23.85
2023-01-30T11:44:07.997Z,26.80
2023-01-30T11:46:51.310Z,27.13
2023-01-30T11:49:51.995Z,27.00
2023-01-30T11:52:43.151Z,26.02
2023-01-30T11:55:34.616Z,27.67
2023-01-30T11:58:21.294Z,29.30
2023-01-30T12:00:56.630Z,27.30
2023-01-30T12:03:35.489Z,26.92
2023-01-30T12:06:14.392Z,26.58
2023-01-30T12:08:57.804Z,25.27
2023-01-30T12:11:47.689Z,26.13
2023-01-30T12:14:25.473Z,25.77
2023-01-30T12:17:21.375Z,24.80
2023-01-30T12:20:13.653Z,24.75
2023-01-30T12:23:14.737Z,26.85
2023-01-30T12:26:13.059Z,23.30
2023-01-30T12:28:47.555Z,21.88
2023-01-30T12:31:47.087Z,21.75
2023-01-30T12:34:27.884Z,21.77
2023-01-30T12:37:16.731Z,20.88
2023-01-30T12:39:56.767Z,23.63
2023-01-30T12:43:02.497Z,21.65
2023-01-30T12:45:46.473Z,23.85
2023-01-30T12:52:16.201Z,24.95
2023-01-30T12:54:53.583Z,24.40
2023-01-30T12:57:37.960Z,21.67
2023-01-30T13:00:51.204Z,22.10
2023-01-30T13:03:45.777Z,23.23
2023-01-30T13:06:23.713Z,20.58
2023-01-30T13:08:59.236Z,22.77
2023-01-30T13:11:54.348Z,22.98
2023-01-30T13:14:51.622Z,25.77
2023-01-30T13:17:42.378Z,23.52
2023-01-30T13:20:29.556Z,23.95
2023-01-30T13:23:13.806Z,24.10
2023-01-30T13:26:03.949Z,23.60
2023-01-30T13:28:52.570Z,24.67
2023-01-30T13:31:40.136Z,31.83
2023-01-30T13:34:36.668Z,24.75
2023-01-30T13:37:17.697Z,24.85
2023-01-30T13:40:03.020Z,24.80
2023-01-30T13:42:47.021Z,23.58
2023-01-30T13:45:26.131Z,24.15
2023-01-30T13:48:34.657Z,25.48
2023-01-30T13:51:38.940Z,25.48
2023-01-30T13:54:26.012Z,25.20
2023-01-30T13:57:11.430Z,24.60
2023-01-30T14:00:05.097Z,24.30
2023-01-30T14:03:04.241Z,24.10
2023-01-30T14:05:52.831Z,21.10
2023-01-30T14:08:34.271Z,19.52
2023-01-30T14:11:40.533Z,19.48
2023-01-30T14:14:41.532Z,21.30
2023-01-30T14:17:20.019Z,19.08
2023-01-30T14:20:15.404Z,22.20
2023-01-30T14:22:57.422Z,22.33
2023-01-30T14:25:39.333Z,19.65
2023-01-30T14:28:52.990Z,21.15
2023-01-30T14:31:55.831Z,22.25
2023-01-30T14:35:08.009Z,22.42
2023-01-30T14:37:46.089Z,22.17
2023-01-30T14:40:28.217Z,21.05
2023-01-30T14:43:16.892Z,23.98
2023-01-30T14:46:41.493Z,19.45
2023-01-30T14:49:49.239Z,20.75
2023-01-30T14:52:40.411Z,20.13
2023-01-30T14:55:33.693Z,20.08
2023-01-30T14:58:19.019Z,21.17
2023-01-30T15:01:08.220Z,20.75
2023-01-30T15:03:54.092Z,23.42
2023-01-30T15:06:38.895Z,23.05
2023-01-30T15:09:21.518Z,21.88
2023-01-30T15:12:20.408Z,20.98
2023-01-30T15:15:33.682Z,21.13
2023-01-30T15:18:18.812Z,20.52
2023-01-30T15:21:45.294Z,22.50
2023-01-30T15:24:38.454Z,21.33
2023-01-30T15:27:52.443Z,22.43
2023-01-30T15:30:57.064Z,22.73
2023-01-30T15:33:32.751Z,25.00
2023-01-30T15:36:24.555Z,26.90
2023-01-30T15:39:11.779Z,30.83
2023-01-30T15:41:47.182Z,24.58
2023-01-30T15:44:42.579Z,26.13
2023-01-30T15:48:07.019Z,27.00
2023-01-30T15:50:44.787Z,25.35
2023-01-30T15:53:24.063Z,24.73
2023-01-30T15:56:12.452Z,25.08
2023-01-30T15:58:59.773Z,25.88
2023-01-30T16:01:38.773Z,24.02
2023-01-30T16:04:38.246Z,20.73
2023-01-30T16:07:29.756Z,22.90
2023-01-30T16:10:07.790Z,23.48
2023-01-30T16:12:46.740Z,23.05
2023-01-30T16:15:28.541Z,22.02
2023-01-30T16:18:13.496Z,21.90
2023-01-30T16:21:03.252Z,24.50
2023-01-30T16:24:05.045Z,26.70
2023-01-30T16:26:46.727Z,28.15
2023-01-30T16:29:26.005Z,25.55
2023-01-30T16:32:02.123Z,25.35
2023-01-30T16:34:44.829Z,24.83
2023-01-30T16:37:46.235Z,22.65
2023-01-30T16:40:42.632Z,23.98
2023-01-30T16:43:24.034Z,27.60
2023-01-30T16:46:27.236Z,21.55
2023-01-30T16:49:16.229Z,21.08
2023-01-30T16:51:51.432Z,20.92
2023-01-30T16:54:33.973Z,21.83
2023-01-30T16:57:19.979Z,19.88
2023-01-30T17:00:08.123Z,22.58
2023-01-30T17:02:46.511Z,22.30
2023-01-30T17:05:31.419Z,25.35
2023-01-30T17:08:44.848Z,22.92
2023-01-30T17:11:40.931Z,25.25
2023-01-30T17:14:19.503Z,22.73
2023-01-30T17:17:10.499Z,22.08
2023-01-30T17:19:46.465Z,21.27
2023-01-30T17:22:27.191Z,22.05
2023-01-30T17:25:10.280Z,21.30
2023-01-30T17:27:50.703Z,21.52
2023-01-30T17:30:33.165Z,21.30
2023-01-30T17:33:11.191Z,21.50
2023-01-30T17:35:49.530Z,20.30
2023-01-30T17:38:29.659Z,20.48
2023-01-30T17:41:10.756Z,19.63
2023-01-30T17:43:42.987Z,18.42
2023-01-30T17:46:22.211Z,16.80
2023-01-30T17:48:57.076Z,17.92
2023-01-30T17:51:34.682Z,17.13
2023-01-30T17:54:21.628Z,16.02
2023-01-30T17:57:15.182Z,16.45
2023-01-30T17:59:58.684Z,17.52
2023-01-30T18:02:45.383Z,16.73
2023-01-30T18:05:23.226Z,15.73
2023-01-30T18:08:01.407Z,14.90
2023-01-30T18:10:53.769Z,16.38
2023-01-30T18:13:30.794Z,16.17
2023-01-30T18:16:26.875Z,16.75
2023-01-30T18:19:08.345Z,17.33
2023-01-30T18:21:51.522Z,17.40
2023-01-30T18:24:33.467Z,25.27
2023-01-30T18:27:14.528Z,33.53
2023-01-30T18:29:54.334Z,40.03
2023-01-30T18:32:35.356Z,17.17
2023-01-30T18:35:16.633Z,17.00
2023-01-30T18:37:52.428Z,14.93
2023-01-30T18:40:30.791Z,14.45
2023-01-30T18:43:11.962Z,15.02
2023-01-30T18:45:49.832Z,14.93
2023-01-30T18:48:32.126Z,15.68
2023-01-30T18:51:22.757Z,15.30
2023-01-30T18:54:02.643Z,15.55
2023-01-30T18:56:46.559Z,14.82
2023-01-30T18:59:26.397Z,17.17
2023-01-30T19:02:02.127Z,18.40
2023-01-30T19:04:48.244Z,21.35
2023-01-30T19:07:23.375Z,22.63
2023-01-30T19:09:59.532Z,18.42
2023-01-30T19:12:50.687Z,17.27
2023-01-30T19:15:25.911Z,19.55
2023-01-30T19:18:00.722Z,20.55
2023-01-30T19:20:32.391Z,19.25
2023-01-30T19:23:17.426Z,15.55
2023-01-30T19:26:01.751Z,25.20
2023-01-30T19:28:41.657Z,31.30
2023-01-30T19:31:19.164Z,21.73
2023-01-30T19:34:01.079Z,27.48
2023-01-30T19:36:41.461Z,14.73
2023-01-30T19:39:25.327Z,15.10
2023-01-30T19:44:39.608Z,18.13
2023-01-30T19:47:21.759Z,21.83
2023-01-30T19:50:01.671Z,19.42
2023-01-30T19:52:47.258Z,15.70
2023-01-30T19:55:21.541Z,15.88
2023-01-30T19:57:53.980Z,14.25
2023-01-30T20:00:37.087Z,14.00
2023-01-30T20:03:16.390Z,12.23
2023-01-30T20:05:51.725Z,14.88
2023-01-30T20:08:32.840Z,23.58
2023-01-30T20:11:22.262Z,14.77
2023-01-30T20:14:10.005Z,17.83
2023-01-30T20:16:45.339Z,15.00
2023-01-30T20:19:24.876Z,12.38
2023-01-30T20:21:59.261Z,15.70
2023-01-30T20:24:37.673Z,18.13
2023-01-30T20:27:15.337Z,13.68
2023-01-30T20:29:53.338Z,12.80
2023-01-30T20:32:33.702Z,13.10
2023-01-30T20:35:21.383Z,13.13
2023-01-30T20:38:02.290Z,12.63
2023-01-30T20:40:36.495Z,12.40
2023-01-30T20:43:18.402Z,12.60
2023-01-30T20:46:17.458Z,11.10
2023-01-30T20:48:56.299Z,12.02
2023-01-30T20:51:38.486Z,12.40
2023-01-30T20:54:13.124Z,14.15
2023-01-30T20:56:58.281Z,12.13
2023-01-30T20:59:38.400Z,10.40
2023-01-30T21:02:12.133Z,11.43
2023-01-30T21:04:52.148Z,11.85
2023-01-30T21:07:34.041Z,11.00
2023-01-30T21:10:10.428Z,9.70
2023-01-30T21:12:47.780Z,10.55
2023-01-30T21:15:22.970Z,11.40
2023-01-30T21:18:03.780Z,11.30
2023-01-30T21:20:39.071Z,9.57
2023-01-30T21:23:17.393Z,8.75
2023-01-30T21:25:52.657Z,9.30
2023-01-30T21:28:38.104Z,9.15
2023-01-30T21:31:18.678Z,10.10
2023-01-30T21:34:01.958Z,9.43
2023-01-30T21:36:40.400Z,9.68
2023-01-30T21:39:38.115Z,9.77
2023-01-30T21:42:27.091Z,8.73
2023-01-30T21:45:06.866Z,9.68
2023-01-30T21:47:44.293Z,9.77
2023-01-30T21:50:19.720Z,10.32
2023-01-30T21:53:00.143Z,10.25
2023-01-30T21:55:36.503Z,12.18
2023-01-30T21:58:19.866Z,9.25
2023-01-30T22:01:11.366Z,10.02
2023-01-30T22:03:54.768Z,12.85
2023-01-30T22:06:24.809Z,12.32
2023-01-30T22:09:09.170Z,12.30
2023-01-30T22:11:55.169Z,11.38
2023-01-30T22:14:27.920Z,10.23
2023-01-30T22:17:05.277Z,9.00
2023-01-30T22:19:48.785Z,9.25
2023-01-30T22:22:47.188Z,10.80
2023-01-30T22:25:49.711Z,8.40
2023-01-30T22:28:27.613Z,10.35
2023-01-30T22:31:31.738Z,8.57
2023-01-30T22:34:06.574Z,9.95
2023-01-30T22:36:40.960Z,7.75
2023-01-30T22:39:15.974Z,11.05
2023-01-30T22:41:51.146Z,9.13
2023-01-30T22:44:39.821Z,9.30
2023-01-30T22:47:21.421Z,8.13
2023-01-30T22:50:01.819Z,8.45
2023-01-30T22:52:45.648Z,9.07
2023-01-30T22:58:04.937Z,7.15
2023-01-30T23:00:42.658Z,8.88
2023-01-30T23:03:25.777Z,8.18
2023-01-30T23:06:14.862Z,10.48
2023-01-30T23:08:53.464Z,9.25
2023-01-30T23:11:39.224Z,9.55
2023-01-30T23:14:24.142Z,7.63
2023-01-30T23:17:18.616Z,9.50
2023-01-30T23:19:59.209Z,8.23
2023-01-30T23:22:36.779Z,8.18
2023-01-30T23:25:13.808Z,7.93
2023-01-30T23:27:51.408Z,7.93
2023-01-30T23:30:23.651Z,7.10
2023-01-30T23:33:03.970Z,7.60
2023-01-30T23:35:40.200Z,7.45
2023-01-30T23:38:21.371Z,7.35
2023-01-30T23:41:07.951Z,7.45
2023-01-30T23:43:50.179Z,6.30
2023-01-30T23:46:36.456Z,6.72
2023-01-30T23:49:21.143Z,7.30
2023-01-30T23:51:59.179Z,7.45
2023-01-30T23:54:40.697Z,8.02
2023-01-30T23:57:24.340Z,8.18
